sensor_id;sensor_type;location;lat;lon;timestamp;temperature;humidity
63976;DHT22;50167;47.958;21.780;2022-09-09T15:09:52;28.70;50.21
63976;DHT22;50167;47.958;21.780;2022-09-09T15:12:19;28.04;52.77
63976;DHT22;50167;47.958;21.780;2022-09-09T15:14:46;27.47;53.81
63976;DHT22;50167;47.958;21.780;2022-09-09T15:17:13;26.94;55.72
63976;DHT22;50167;47.958;21.780;2022-09-09T15:19:39;26.59;56.99
63976;DHT22;50167;47.958;21.780;2022-09-09T15:22:05;26.35;58.41
63976;DHT22;50167;47.958;21.780;2022-09-09T15:24:33;26.18;59.43
63976;DHT22;50167;47.958;21.780;2022-09-09T15:27:01;26.04;60.10
63976;DHT22;50167;47.958;21.780;2022-09-09T15:29:28;25.95;60.36
63976;DHT22;50167;47.958;21.780;2022-09-09T15:31:54;25.80;61.26
63976;DHT22;50167;47.958;21.780;2022-09-09T15:34:23;25.75;61.55
63976;DHT22;50167;47.958;21.780;2022-09-09T15:36:53;25.63;61.95
63976;DHT22;50167;47.958;21.780;2022-09-09T15:39:21;25.49;61.99
63976;DHT22;50167;47.958;21.780;2022-09-09T15:42:02;25.36;62.75
63976;DHT22;50167;47.958;21.780;2022-09-09T15:44:28;26.22;61.53
63976;DHT22;50167;47.958;21.780;2022-09-09T15:46:54;27.30;60.11
63976;DHT22;50167;47.958;21.780;2022-09-09T15:49:24;27.83;56.90
63976;DHT22;50167;47.958;21.780;2022-09-09T15:51:57;27.64;56.84
63976;DHT22;50167;47.958;21.780;2022-09-09T15:54:25;26.90;58.50
63976;DHT22;50167;47.958;21.780;2022-09-09T15:56:56;26.34;60.34
63976;DHT22;50167;47.958;21.780;2022-09-09T15:59:24;25.90;61.60
63976;DHT22;50167;47.958;21.780;2022-09-09T16:01:51;25.57;62.89
63976;DHT22;50167;47.958;21.780;2022-09-09T16:04:19;26.12;62.56
63976;DHT22;50167;47.958;21.780;2022-09-09T16:06:48;27.04;60.69
63976;DHT22;50167;47.958;21.780;2022-09-09T16:09:17;27.54;58.92
63976;DHT22;50167;47.958;21.780;2022-09-09T16:11:44;27.32;57.87
63976;DHT22;50167;47.958;21.780;2022-09-09T16:14:11;26.52;59.22
63976;DHT22;50167;47.958;21.780;2022-09-09T16:16:37;25.83;61.17
63976;DHT22;50167;47.958;21.780;2022-09-09T16:19:06;25.29;63.12
63976;DHT22;50167;47.958;21.780;2022-09-09T16:21:38;25.79;63.94
63976;DHT22;50167;47.958;21.780;2022-09-09T16:24:08;26.78;62.17
63976;DHT22;50167;47.958;21.780;2022-09-09T16:26:38;27.40;60.02
63976;DHT22;50167;47.958;21.780;2022-09-09T16:29:04;27.69;58.59
63976;DHT22;50167;47.958;21.780;2022-09-09T16:31:32;27.41;57.78
63976;DHT22;50167;47.958;21.780;2022-09-09T16:33:58;26.53;58.99
63976;DHT22;50167;47.958;21.780;2022-09-09T16:36:28;25.77;60.94
63976;DHT22;50167;47.958;21.780;2022-09-09T16:38:59;25.15;62.90
63976;DHT22;50167;47.958;21.780;2022-09-09T16:41:27;25.50;63.94
63976;DHT22;50167;47.958;21.780;2022-09-09T16:46:23;26.85;61.24
63976;DHT22;50167;47.958;21.780;2022-09-09T16:48:50;27.13;59.55
63976;DHT22;50167;47.958;21.780;2022-09-09T16:51:21;26.76;59.39
63976;DHT22;50167;47.958;21.780;2022-09-09T16:53:49;25.81;61.33
63976;DHT22;50167;47.958;21.780;2022-09-09T16:56:22;25.12;62.84
63976;DHT22;50167;47.958;21.780;2022-09-09T16:58:55;25.48;63.89
63976;DHT22;50167;47.958;21.780;2022-09-09T17:01:23;26.25;62.35
63976;DHT22;50167;47.958;21.780;2022-09-09T17:03:57;26.67;61.46
63976;DHT22;50167;47.958;21.780;2022-09-09T17:06:24;26.93;60.22
63976;DHT22;50167;47.958;21.780;2022-09-09T17:08:58;27.09;59.68
63976;DHT22;50167;47.958;21.780;2022-09-09T17:11:29;27.18;59.50
63976;DHT22;50167;47.958;21.780;2022-09-09T17:13:57;26.74;59.67
63976;DHT22;50167;47.958;21.780;2022-09-09T17:16:30;25.84;61.57
63976;DHT22;50167;47.958;21.780;2022-09-09T17:18:57;25.12;63.63
63976;DHT22;50167;47.958;21.780;2022-09-09T17:21:27;25.48;64.65
63976;DHT22;50167;47.958;21.780;2022-09-09T17:23:54;26.30;63.31
63976;DHT22;50167;47.958;21.780;2022-09-09T17:26:24;26.78;61.43
63976;DHT22;50167;47.958;21.780;2022-09-09T17:28:53;27.10;60.19
63976;DHT22;50167;47.958;21.780;2022-09-09T17:31:20;27.31;59.50
63976;DHT22;50167;47.958;21.780;2022-09-09T17:33:49;26.94;59.03
63976;DHT22;50167;47.958;21.780;2022-09-09T17:36:19;25.94;61.11
63976;DHT22;50167;47.958;21.780;2022-09-09T17:38:45;25.15;59.25
63976;DHT22;50167;47.958;21.780;2022-09-09T17:41:17;24.52;64.58
63976;DHT22;50167;47.958;21.780;2022-09-09T17:43:44;24.98;66.11
63976;DHT22;50167;47.958;21.780;2022-09-09T17:46:29;25.83;63.97
63976;DHT22;50167;47.958;21.780;2022-09-09T17:49:00;26.36;61.98
63976;DHT22;50167;47.958;21.780;2022-09-09T17:51:29;26.48;61.48
63976;DHT22;50167;47.958;21.780;2022-09-09T17:54:02;26.56;61.02
63976;DHT22;50167;47.958;21.780;2022-09-09T17:56:29;26.60;62.75
63976;DHT22;50167;47.958;21.780;2022-09-09T17:59:01;26.64;60.90
63976;DHT22;50167;47.958;21.780;2022-09-09T18:01:31;26.79;60.27
63976;DHT22;50167;47.958;21.780;2022-09-09T18:03:59;26.83;61.75
63976;DHT22;50167;47.958;21.780;2022-09-09T18:06:33;26.83;60.02
63976;DHT22;50167;47.958;21.780;2022-09-09T18:09:03;26.90;59.67
63976;DHT22;50167;47.958;21.780;2022-09-09T18:11:35;26.93;59.95
63976;DHT22;50167;47.958;21.780;2022-09-09T18:14:04;27.03;59.60
63976;DHT22;50167;47.958;21.780;2022-09-09T18:16:33;27.09;59.44
63976;DHT22;50167;47.958;21.780;2022-09-09T18:19:08;26.63;59.92
63976;DHT22;50167;47.958;21.780;2022-09-09T18:21:38;25.59;61.87
63976;DHT22;50167;47.958;21.780;2022-09-09T18:24:06;24.78;64.14
63976;DHT22;50167;47.958;21.780;2022-09-09T18:26:35;25.05;65.79
63976;DHT22;50167;47.958;21.780;2022-09-09T18:29:05;25.81;63.79
63976;DHT22;50167;47.958;21.780;2022-09-09T18:31:31;26.20;64.75
63976;DHT22;50167;47.958;21.780;2022-09-09T18:34:01;26.35;62.30
63976;DHT22;50167;47.958;21.780;2022-09-09T18:36:36;26.49;61.43
63976;DHT22;50167;47.958;21.780;2022-09-09T18:39:05;26.60;60.82
63976;DHT22;50167;47.958;21.780;2022-09-09T18:41:35;26.59;60.60
63976;DHT22;50167;47.958;21.780;2022-09-09T18:44:12;26.55;60.96
63976;DHT22;50167;47.958;21.780;2022-09-09T18:46:42;26.58;60.66
63976;DHT22;50167;47.958;21.780;2022-09-09T18:49:08;26.63;60.23
63976;DHT22;50167;47.958;21.780;2022-09-09T18:51:38;26.63;59.96
63976;DHT22;50167;47.958;21.780;2022-09-09T18:54:11;26.63;59.86
63976;DHT22;50167;47.958;21.780;2022-09-09T18:56:38;26.56;60.08
63976;DHT22;50167;47.958;21.780;2022-09-09T18:59:07;26.59;60.09
63976;DHT22;50167;47.958;21.780;2022-09-09T19:01:34;26.67;59.86
63976;DHT22;50167;47.958;21.780;2022-09-09T19:04:04;26.70;59.64
63976;DHT22;50167;47.958;21.780;2022-09-09T19:06:32;26.64;59.59
63976;DHT22;50167;47.958;21.780;2022-09-09T19:08:59;26.63;59.71
63976;DHT22;50167;47.958;21.780;2022-09-09T19:11:26;26.62;59.78
63976;DHT22;50167;47.958;21.780;2022-09-09T19:13:57;26.62;59.44
63976;DHT22;50167;47.958;21.780;2022-09-09T19:16:26;26.01;60.09
63976;DHT22;50167;47.958;21.780;2022-09-09T19:18:57;24.92;62.14
63976;DHT22;50167;47.958;21.780;2022-09-09T19:21:27;24.78;64.71
63976;DHT22;50167;47.958;21.780;2022-09-09T19:23:57;25.45;63.69
63976;DHT22;50167;47.958;21.780;2022-09-09T19:26:30;25.81;62.63
63976;DHT22;50167;47.958;21.780;2022-09-09T19:28:58;26.01;61.89
63976;DHT22;50167;47.958;21.780;2022-09-09T19:31:25;26.14;61.40
63976;DHT22;50167;47.958;21.780;2022-09-09T19:33:54;26.27;61.12
63976;DHT22;50167;47.958;21.780;2022-09-09T19:36:21;26.41;60.72
63976;DHT22;50167;47.958;21.780;2022-09-09T19:38:47;26.48;60.25
63976;DHT22;50167;47.958;21.780;2022-09-09T19:41:20;26.51;59.93
63976;DHT22;50167;47.958;21.780;2022-09-09T19:43:48;26.52;59.81
63976;DHT22;50167;47.958;21.780;2022-09-09T19:46:16;26.48;59.72
63976;DHT22;50167;47.958;21.780;2022-09-09T19:48:45;26.48;60.40
63976;DHT22;50167;47.958;21.780;2022-09-09T19:51:20;26.51;59.52
63976;DHT22;50167;47.958;21.780;2022-09-09T19:53:46;26.59;59.17
63976;DHT22;50167;47.958;21.780;2022-09-09T19:56:14;26.07;59.15
63976;DHT22;50167;47.958;21.780;2022-09-09T19:58:41;25.08;61.49
63976;DHT22;50167;47.958;21.780;2022-09-09T20:01:22;24.23;63.66
63976;DHT22;50167;47.958;21.780;2022-09-09T20:03:50;24.46;65.25
63976;DHT22;50167;47.958;21.780;2022-09-09T20:06:21;25.05;63.89
63976;DHT22;50167;47.958;21.780;2022-09-09T20:08:53;25.28;63.11
63976;DHT22;50167;47.958;21.780;2022-09-09T20:11:21;25.32;62.87
63976;DHT22;50167;47.958;21.780;2022-09-09T20:13:48;25.30;62.90
63976;DHT22;50167;47.958;21.780;2022-09-09T20:16:21;25.33;62.93
63976;DHT22;50167;47.958;21.780;2022-09-09T20:18:53;25.39;62.58
63976;DHT22;50167;47.958;21.780;2022-09-09T20:21:25;25.52;62.29
63976;DHT22;50167;47.958;21.780;2022-09-09T20:23:53;25.53;61.93
63976;DHT22;50167;47.958;21.780;2022-09-09T20:26:22;25.53;61.89
63976;DHT22;50167;47.958;21.780;2022-09-09T20:28:52;25.49;61.74
63976;DHT22;50167;47.958;21.780;2022-09-09T20:31:21;25.50;61.69
63976;DHT22;50167;47.958;21.780;2022-09-09T20:33:49;25.48;61.67
63976;DHT22;50167;47.958;21.780;2022-09-09T20:36:19;25.52;61.64
63976;DHT22;50167;47.958;21.780;2022-09-09T20:38:54;25.55;62.24
63976;DHT22;50167;47.958;21.780;2022-09-09T20:41:20;25.49;61.68
63976;DHT22;50167;47.958;21.780;2022-09-09T20:44:05;25.52;61.44
63976;DHT22;50167;47.958;21.780;2022-09-09T20:46:32;25.56;61.38
63976;DHT22;50167;47.958;21.780;2022-09-09T20:48:58;25.60;61.22
63976;DHT22;50167;47.958;21.780;2022-09-09T20:51:26;25.65;61.13
63976;DHT22;50167;47.958;21.780;2022-09-09T20:54:01;25.69;61.01
63976;DHT22;50167;47.958;21.780;2022-09-09T20:56:38;25.73;60.88
63976;DHT22;50167;47.958;21.780;2022-09-09T20:59:12;25.75;60.20
63976;DHT22;50167;47.958;21.780;2022-09-09T21:01:39;25.79;59.74
63976;DHT22;50167;47.958;21.780;2022-09-09T21:04:07;25.80;59.57
63976;DHT22;50167;47.958;21.780;2022-09-09T21:06:34;25.77;59.70
63976;DHT22;50167;47.958;21.780;2022-09-09T21:09:01;25.79;59.57
63976;DHT22;50167;47.958;21.780;2022-09-09T21:11:27;25.38;59.53
63976;DHT22;50167;47.958;21.780;2022-09-09T21:13:53;24.36;61.63
63976;DHT22;50167;47.958;21.780;2022-09-09T21:16:21;23.43;64.37
63976;DHT22;50167;47.958;21.780;2022-09-09T21:18:48;23.53;66.32
63976;DHT22;50167;47.958;21.780;2022-09-09T21:21:15;24.11;65.61
63976;DHT22;50167;47.958;21.780;2022-09-09T21:23:44;24.47;64.47
63976;DHT22;50167;47.958;21.780;2022-09-09T21:26:10;24.70;63.37
63976;DHT22;50167;47.958;21.780;2022-09-09T21:28:36;24.81;63.14
63976;DHT22;50167;47.958;21.780;2022-09-09T21:31:04;24.88;62.63
63976;DHT22;50167;47.958;21.780;2022-09-09T21:33:32;24.97;62.28
63976;DHT22;50167;47.958;21.780;2022-09-09T21:36:04;24.95;62.23
63976;DHT22;50167;47.958;21.780;2022-09-09T21:38:32;24.98;62.12
63976;DHT22;50167;47.958;21.780;2022-09-09T21:41:04;25.05;62.15
63976;DHT22;50167;47.958;21.780;2022-09-09T21:43:32;25.11;61.75
63976;DHT22;50167;47.958;21.780;2022-09-09T21:45:59;25.07;61.55
63976;DHT22;50167;47.958;21.780;2022-09-09T21:48:27;25.04;61.75
63976;DHT22;50167;47.958;21.780;2022-09-09T21:50:53;25.01;61.65
63976;DHT22;50167;47.958;21.780;2022-09-09T21:53:20;25.04;61.56
63976;DHT22;50167;47.958;21.780;2022-09-09T21:55:48;25.11;61.20
63976;DHT22;50167;47.958;21.780;2022-09-09T21:58:15;25.18;60.87
63976;DHT22;50167;47.958;21.780;2022-09-09T22:00:45;25.19;60.74
63976;DHT22;50167;47.958;21.780;2022-09-09T22:03:13;25.18;60.90
63976;DHT22;50167;47.958;21.780;2022-09-09T22:05:43;25.19;60.95
63976;DHT22;50167;47.958;21.780;2022-09-09T22:08:13;25.19;60.88
63976;DHT22;50167;47.958;21.780;2022-09-09T22:10:42;25.22;61.01
63976;DHT22;50167;47.958;21.780;2022-09-09T22:13:14;25.22;61.07
63976;DHT22;50167;47.958;21.780;2022-09-09T22:15:43;25.25;60.86
63976;DHT22;50167;47.958;21.780;2022-09-09T22:18:10;25.30;60.58
63976;DHT22;50167;47.958;21.780;2022-09-09T22:20:43;25.30;60.40
63976;DHT22;50167;47.958;21.780;2022-09-09T22:23:11;25.25;60.37
63976;DHT22;50167;47.958;21.780;2022-09-09T22:25:38;25.21;60.47
63976;DHT22;50167;47.958;21.780;2022-09-09T22:28:07;25.25;60.44
63976;DHT22;50167;47.958;21.780;2022-09-09T22:30:34;25.30;60.27
63976;DHT22;50167;47.958;21.780;2022-09-09T22:33:00;25.36;60.01
63976;DHT22;50167;47.958;21.780;2022-09-09T22:35:27;25.38;59.68
63976;DHT22;50167;47.958;21.780;2022-09-09T22:37:53;25.33;59.99
63976;DHT22;50167;47.958;21.780;2022-09-09T22:40:21;25.36;59.92
63976;DHT22;50167;47.958;21.780;2022-09-09T22:42:47;25.38;59.77
63976;DHT22;50167;47.958;21.780;2022-09-09T22:45:14;25.33;59.82
63976;DHT22;50167;47.958;21.780;2022-09-09T22:47:40;25.32;59.97
63976;DHT22;50167;47.958;21.780;2022-09-09T22:50:09;25.33;59.80
63976;DHT22;50167;47.958;21.780;2022-09-09T22:52:35;25.39;59.31
63976;DHT22;50167;47.958;21.780;2022-09-09T22:55:02;24.91;59.35
63976;DHT22;50167;47.958;21.780;2022-09-09T22:57:28;23.88;61.47
63976;DHT22;50167;47.958;21.780;2022-09-09T22:59:55;22.86;64.01
63976;DHT22;50167;47.958;21.780;2022-09-09T23:02:21;22.91;66.22
63976;DHT22;50167;47.958;21.780;2022-09-09T23:04:48;23.50;65.44
63976;DHT22;50167;47.958;21.780;2022-09-09T23:07:15;23.83;64.68
63976;DHT22;50167;47.958;21.780;2022-09-09T23:09:42;24.01;64.21
63976;DHT22;50167;47.958;21.780;2022-09-09T23:12:08;24.25;63.85
63976;DHT22;50167;47.958;21.780;2022-09-09T23:14:35;24.42;63.38
63976;DHT22;50167;47.958;21.780;2022-09-09T23:17:01;24.54;62.80
63976;DHT22;50167;47.958;21.780;2022-09-09T23:19:28;24.61;62.40
63976;DHT22;50167;47.958;21.780;2022-09-09T23:21:54;24.74;61.99
63976;DHT22;50167;47.958;21.780;2022-09-09T23:24:20;24.80;61.65
63976;DHT22;50167;47.958;21.780;2022-09-09T23:26:47;24.88;61.48
63976;DHT22;50167;47.958;21.780;2022-09-09T23:29:13;24.95;61.48
63976;DHT22;50167;47.958;21.780;2022-09-09T23:31:42;25.04;61.16
63976;DHT22;50167;47.958;21.780;2022-09-09T23:34:10;25.15;60.92
63976;DHT22;50167;47.958;21.780;2022-09-09T23:36:38;25.17;60.82
63976;DHT22;50167;47.958;21.780;2022-09-09T23:39:06;25.19;60.91
63976;DHT22;50167;47.958;21.780;2022-09-09T23:41:34;25.30;60.72
63976;DHT22;50167;47.958;21.780;2022-09-09T23:44:01;25.39;60.46
63976;DHT22;50167;47.958;21.780;2022-09-09T23:46:29;25.36;60.40
63976;DHT22;50167;47.958;21.780;2022-09-09T23:48:57;25.29;60.59
63976;DHT22;50167;47.958;21.780;2022-09-09T23:51:26;25.22;60.98
63976;DHT22;50167;47.958;21.780;2022-09-09T23:53:57;25.18;61.13
63976;DHT22;50167;47.958;21.780;2022-09-09T23:56:29;25.15;60.99
63976;DHT22;50167;47.958;21.780;2022-09-09T23:58:56;25.19;60.72
